sensor_id;sensor_type;location;lat;lon;timestamp;pressure;altitude;pressure_sealevel;temperature;humidity
35758;BME280;21879;50.110;18.900;2022-09-09T00:08:33;98332.08;;;18.96;73.37
35758;BME280;21879;50.110;18.900;2022-09-09T00:19:07;98331.56;;;18.95;73.25
35758;BME280;21879;50.110;18.900;2022-09-09T00:29:45;98332.50;;;18.94;73.02
35758;BME280;21879;50.110;18.900;2022-09-09T00:40:21;98335.48;;;19.01;72.86
35758;BME280;21879;50.110;18.900;2022-09-09T00:50:55;98337.50;;;19.14;72.53
35758;BME280;21879;50.110;18.900;2022-09-09T01:01:26;98350.83;;;19.26;71.90
35758;BME280;21879;50.110;18.900;2022-09-09T01:11:59;98364.05;;;19.12;71.51
35758;BME280;21879;50.110;18.900;2022-09-09T01:22:36;98369.41;;;18.85;71.66
35758;BME280;21879;50.110;18.900;2022-09-09T01:33:13;98374.48;;;18.82;71.97
35758;BME280;21879;50.110;18.900;2022-09-09T01:43:41;98386.04;;;18.98;72.12
35758;BME280;21879;50.110;18.900;2022-09-09T01:54:10;98383.63;;;18.93;71.55
35758;BME280;21879;50.110;18.900;2022-09-09T02:04:43;98389.61;;;18.75;71.56
35758;BME280;21879;50.110;18.900;2022-09-09T02:15:17;98389.88;;;18.58;71.71
35758;BME280;21879;50.110;18.900;2022-09-09T02:25:49;98396.95;;;18.38;71.85
35758;BME280;21879;50.110;18.900;2022-09-09T02:36:20;98406.33;;;18.48;71.95
35758;BME280;21879;50.110;18.900;2022-09-09T02:47:10;98412.82;;;18.60;71.59
35758;BME280;21879;50.110;18.900;2022-09-09T02:57:41;98418.95;;;18.45;71.23
35758;BME280;21879;50.110;18.900;2022-09-09T03:08:12;98431.70;;;18.36;71.18
35758;BME280;21879;50.110;18.900;2022-09-09T03:18:40;98432.36;;;18.33;71.55
35758;BME280;21879;50.110;18.900;2022-09-09T03:29:09;98437.98;;;18.45;71.24
35758;BME280;21879;50.110;18.900;2022-09-09T03:39:38;98440.06;;;18.58;70.67
35758;BME280;21879;50.110;18.900;2022-09-09T03:50:08;98448.02;;;18.52;69.96
35758;BME280;21879;50.110;18.900;2022-09-09T04:00:37;98453.54;;;18.55;69.71
35758;BME280;21879;50.110;18.900;2022-09-09T04:11:09;98463.67;;;18.30;68.94
35758;BME280;21879;50.110;18.900;2022-09-09T04:21:36;98466.74;;;17.71;69.66
35758;BME280;21879;50.110;18.900;2022-09-09T04:32:06;98467.45;;;17.49;70.39
35758;BME280;21879;50.110;18.900;2022-09-09T04:42:37;98464.98;;;17.58;70.62
35758;BME280;21879;50.110;18.900;2022-09-09T04:53:06;98467.61;;;17.32;70.69
35758;BME280;21879;50.110;18.900;2022-09-09T05:03:34;98472.86;;;17.33;71.14
35758;BME280;21879;50.110;18.900;2022-09-09T05:14:02;98478.16;;;17.54;71.20
35758;BME280;21879;50.110;18.900;2022-09-09T05:24:30;98489.28;;;17.79;71.13
35758;BME280;21879;50.110;18.900;2022-09-09T05:34:59;98502.67;;;17.99;71.14
35758;BME280;21879;50.110;18.900;2022-09-09T05:45:28;98497.13;;;18.10;71.29
35758;BME280;21879;50.110;18.900;2022-09-09T05:56:03;98494.58;;;18.31;72.16
35758;BME280;21879;50.110;18.900;2022-09-09T06:06:34;98496.66;;;18.63;71.93
35758;BME280;21879;50.110;18.900;2022-09-09T06:17:03;98497.52;;;18.68;71.56
35758;BME280;21879;50.110;18.900;2022-09-09T06:27:31;98501.73;;;19.03;71.91
35758;BME280;21879;50.110;18.900;2022-09-09T06:37:59;98502.65;;;19.36;71.57
35758;BME280;21879;50.110;18.900;2022-09-09T06:48:27;98499.38;;;19.67;70.73
35758;BME280;21879;50.110;18.900;2022-09-09T06:58:57;98503.67;;;19.97;70.58
35758;BME280;21879;50.110;18.900;2022-09-09T07:09:25;98493.42;;;20.52;69.99
35758;BME280;21879;50.110;18.900;2022-09-09T07:19:54;98485.77;;;20.93;69.22
35758;BME280;21879;50.110;18.900;2022-09-09T07:30:23;98479.06;;;21.40;67.87
35758;BME280;21879;50.110;18.900;2022-09-09T07:40:53;98486.17;;;21.64;66.48
35758;BME280;21879;50.110;18.900;2022-09-09T07:51:23;98488.59;;;21.86;66.05
35758;BME280;21879;50.110;18.900;2022-09-09T08:01:52;98497.70;;;22.12;64.63
35758;BME280;21879;50.110;18.900;2022-09-09T08:12:21;98491.77;;;22.32;62.62
35758;BME280;21879;50.110;18.900;2022-09-09T08:22:49;98497.89;;;22.47;61.46
35758;BME280;21879;50.110;18.900;2022-09-09T08:33:18;98500.55;;;22.56;60.71
35758;BME280;21879;50.110;18.900;2022-09-09T08:43:47;98501.78;;;22.53;59.79
35758;BME280;21879;50.110;18.900;2022-09-09T08:54:17;98501.42;;;22.53;59.10
35758;BME280;21879;50.110;18.900;2022-09-09T09:05:17;98502.05;;;22.66;59.61
35758;BME280;21879;50.110;18.900;2022-09-09T09:15:48;98504.49;;;22.75;59.21
35758;BME280;21879;50.110;18.900;2022-09-09T09:26:19;98491.20;;;22.67;57.92
35758;BME280;21879;50.110;18.900;2022-09-09T09:36:55;98478.15;;;22.57;57.82
35758;BME280;21879;50.110;18.900;2022-09-09T09:47:24;98479.88;;;22.58;57.64
35758;BME280;21879;50.110;18.900;2022-09-09T09:57:53;98488.00;;;22.56;56.73
35758;BME280;21879;50.110;18.900;2022-09-09T10:08:22;98486.89;;;22.62;56.26
35758;BME280;21879;50.110;18.900;2022-09-09T10:19:00;98494.80;;;22.69;56.89
35758;BME280;21879;50.110;18.900;2022-09-09T10:29:37;98511.19;;;22.76;56.83
35758;BME280;21879;50.110;18.900;2022-09-09T10:40:30;98522.64;;;22.71;55.37
35758;BME280;21879;50.110;18.900;2022-09-09T10:51:08;98514.93;;;22.64;55.19
35758;BME280;21879;50.110;18.900;2022-09-09T11:01:44;98509.04;;;22.53;54.99
35758;BME280;21879;50.110;18.900;2022-09-09T11:12:19;98511.27;;;22.55;54.92
35758;BME280;21879;50.110;18.900;2022-09-09T11:22:50;98511.60;;;22.64;55.60
35758;BME280;21879;50.110;18.900;2022-09-09T11:33:39;98514.98;;;22.66;54.70
35758;BME280;21879;50.110;18.900;2022-09-09T11:44:22;98522.37;;;22.67;53.91
35758;BME280;21879;50.110;18.900;2022-09-09T11:54:50;98515.02;;;22.74;52.51
35758;BME280;21879;50.110;18.900;2022-09-09T12:05:21;98513.88;;;22.81;52.23
35758;BME280;21879;50.110;18.900;2022-09-09T12:15:50;98518.70;;;22.86;52.42
35758;BME280;21879;50.110;18.900;2022-09-09T12:26:33;98523.65;;;22.89;52.56
35758;BME280;21879;50.110;18.900;2022-09-09T12:37:05;98527.50;;;22.87;52.04
35758;BME280;21879;50.110;18.900;2022-09-09T12:47:38;98524.79;;;22.77;51.54
35758;BME280;21879;50.110;18.900;2022-09-09T12:58:11;98521.92;;;22.77;51.25
35758;BME280;21879;50.110;18.900;2022-09-09T13:08:41;98515.23;;;22.79;51.51
35758;BME280;21879;50.110;18.900;2022-09-09T13:19:13;98503.97;;;22.81;51.45
35758;BME280;21879;50.110;18.900;2022-09-09T13:29:52;98500.48;;;22.77;50.97
35758;BME280;21879;50.110;18.900;2022-09-09T13:40:23;98487.88;;;22.71;51.28
35758;BME280;21879;50.110;18.900;2022-09-09T13:50:57;98477.92;;;22.75;50.79
35758;BME280;21879;50.110;18.900;2022-09-09T14:01:26;98464.64;;;22.81;50.54
35758;BME280;21879;50.110;18.900;2022-09-09T14:11:55;98454.06;;;22.68;49.00
35758;BME280;21879;50.110;18.900;2022-09-09T14:22:24;98452.83;;;22.63;50.53
35758;BME280;21879;50.110;18.900;2022-09-09T14:32:53;98448.62;;;22.59;52.12
35758;BME280;21879;50.110;18.900;2022-09-09T14:43:21;98453.34;;;22.52;53.02
35758;BME280;21879;50.110;18.900;2022-09-09T14:53:52;98447.94;;;22.47;54.26
35758;BME280;21879;50.110;18.900;2022-09-09T15:04:21;98444.55;;;22.50;54.81
35758;BME280;21879;50.110;18.900;2022-09-09T15:14:49;98446.73;;;22.58;53.63
35758;BME280;21879;50.110;18.900;2022-09-09T15:25:17;98447.58;;;22.59;53.93
35758;BME280;21879;50.110;18.900;2022-09-09T15:35:45;98445.84;;;22.50;54.35
35758;BME280;21879;50.110;18.900;2022-09-09T15:46:33;98456.61;;;22.33;54.65
35758;BME280;21879;50.110;18.900;2022-09-09T15:57:06;98459.30;;;22.09;55.58
35758;BME280;21879;50.110;18.900;2022-09-09T16:07:34;98447.34;;;21.87;56.54
35758;BME280;21879;50.110;18.900;2022-09-09T16:18:03;98443.65;;;21.68;57.26
35758;BME280;21879;50.110;18.900;2022-09-09T16:28:32;98433.86;;;21.42;57.57
35758;BME280;21879;50.110;18.900;2022-09-09T16:39:02;98435.30;;;21.29;57.60
35758;BME280;21879;50.110;18.900;2022-09-09T16:49:31;98431.23;;;21.14;58.48
35758;BME280;21879;50.110;18.900;2022-09-09T16:59:59;98436.26;;;21.03;59.25
35758;BME280;21879;50.110;18.900;2022-09-09T17:10:27;98438.33;;;20.85;59.83
35758;BME280;21879;50.110;18.900;2022-09-09T17:20:55;98444.95;;;20.74;59.99
35758;BME280;21879;50.110;18.900;2022-09-09T17:31:24;98452.58;;;20.56;60.23
35758;BME280;21879;50.110;18.900;2022-09-09T17:41:53;98455.11;;;20.35;60.64
35758;BME280;21879;50.110;18.900;2022-09-09T17:52:22;98458.66;;;20.11;61.21
35758;BME280;21879;50.110;18.900;2022-09-09T18:02:50;98470.05;;;20.06;61.61
35758;BME280;21879;50.110;18.900;2022-09-09T18:13:18;98473.23;;;20.03;61.45
35758;BME280;21879;50.110;18.900;2022-09-09T18:23:47;98481.67;;;19.86;61.53
35758;BME280;21879;50.110;18.900;2022-09-09T18:34:19;98489.58;;;19.72;61.64
35758;BME280;21879;50.110;18.900;2022-09-09T18:44:48;98499.20;;;19.52;62.12
35758;BME280;21879;50.110;18.900;2022-09-09T18:55:16;98508.11;;;19.50;62.54
35758;BME280;21879;50.110;18.900;2022-09-09T19:05:52;98503.08;;;19.48;63.04
35758;BME280;21879;50.110;18.900;2022-09-09T19:16:21;98493.80;;;19.47;62.87
35758;BME280;21879;50.110;18.900;2022-09-09T19:26:51;98485.84;;;19.33;63.18
35758;BME280;21879;50.110;18.900;2022-09-09T19:37:20;98486.45;;;19.24;63.69
35758;BME280;21879;50.110;18.900;2022-09-09T19:47:48;98493.11;;;19.17;63.99
35758;BME280;21879;50.110;18.900;2022-09-09T19:58:17;98497.42;;;19.12;64.07
35758;BME280;21879;50.110;18.900;2022-09-09T20:08:47;98503.35;;;18.91;64.12
35758;BME280;21879;50.110;18.900;2022-09-09T20:19:15;98507.01;;;18.95;64.40
35758;BME280;21879;50.110;18.900;2022-09-09T20:29:43;98498.82;;;18.94;64.24
35758;BME280;21879;50.110;18.900;2022-09-09T20:40:13;98497.33;;;18.80;64.44
35758;BME280;21879;50.110;18.900;2022-09-09T20:50:41;98490.59;;;18.65;64.70
35758;BME280;21879;50.110;18.900;2022-09-09T21:01:16;98485.55;;;18.64;64.89
35758;BME280;21879;50.110;18.900;2022-09-09T21:11:44;98488.95;;;18.70;64.77
35758;BME280;21879;50.110;18.900;2022-09-09T21:22:13;98491.11;;;18.69;64.57
35758;BME280;21879;50.110;18.900;2022-09-09T21:32:41;98486.17;;;18.54;64.68
35758;BME280;21879;50.110;18.900;2022-09-09T21:43:10;98475.86;;;18.60;64.85
35758;BME280;21879;50.110;18.900;2022-09-09T21:53:39;98480.54;;;18.66;64.53
35758;BME280;21879;50.110;18.900;2022-09-09T22:04:07;98476.27;;;18.59;64.67
35758;BME280;21879;50.110;18.900;2022-09-09T22:14:35;98476.53;;;18.57;64.85
35758;BME280;21879;50.110;18.900;2022-09-09T22:25:04;98472.30;;;18.49;65.06
35758;BME280;21879;50.110;18.900;2022-09-09T22:35:32;98479.37;;;18.45;65.31
35758;BME280;21879;50.110;18.900;2022-09-09T22:46:07;98494.96;;;18.38;65.14
35758;BME280;21879;50.110;18.900;2022-09-09T22:56:35;98495.98;;;18.12;65.54
35758;BME280;21879;50.110;18.900;2022-09-09T23:07:03;98503.11;;;18.09;66.00
35758;BME280;21879;50.110;18.900;2022-09-09T23:17:33;98508.43;;;18.00;66.32
35758;BME280;21879;50.110;18.900;2022-09-09T23:28:02;98492.40;;;17.92;66.84
35758;BME280;21879;50.110;18.900;2022-09-09T23:38:30;98447.20;;;17.80;67.25
35758;BME280;21879;50.110;18.900;2022-09-09T23:48:58;98435.41;;;17.46;68.03
35758;BME280;21879;50.110;18.900;2022-09-09T23:59:28;98437.71;;;17.71;68.55
